createdAt,value
2018-09-10T00:00:43.718Z,68.14
2018-09-10T00:03:12.375Z,68.35
2018-09-10T00:05:41.104Z,68.70
2018-09-10T00:08:09.772Z,68.82
2018-09-10T00:10:38.518Z,69.29
2018-09-10T00:13:07.266Z,69.18
2018-09-10T00:15:35.956Z,68.95
2018-09-10T00:18:04.775Z,70.33
2018-09-10T00:20:33.458Z,69.06
2018-09-10T00:23:02.120Z,69.45
2018-09-10T00:25:30.778Z,69.61
2018-09-10T00:27:59.459Z,69.65
2018-09-10T00:30:28.144Z,69.78
2018-09-10T00:32:56.784Z,68.95
2018-09-10T00:35:25.444Z,68.46
2018-09-10T00:37:54.121Z,70.42
2018-09-10T00:40:22.753Z,70.18
2018-09-10T00:42:51.379Z,70.53
2018-09-10T00:45:20.034Z,70.08
2018-09-10T00:47:48.704Z,70.99
2018-09-10T00:50:17.395Z,70.05
2018-09-10T00:52:46.031Z,70.23
2018-09-10T00:55:14.675Z,71.48
2018-09-10T00:57:43.344Z,71.01
2018-09-10T01:00:12.114Z,71.13
2018-09-10T01:02:40.825Z,71.61
2018-09-10T01:05:09.500Z,71.63
2018-09-10T01:07:38.164Z,72.55
2018-09-10T01:10:06.856Z,71.77
2018-09-10T01:12:35.487Z,71.38
2018-09-10T01:15:04.251Z,72.10
2018-09-10T01:17:32.913Z,71.53
2018-09-10T01:20:01.628Z,71.82
2018-09-10T01:22:30.516Z,70.82
2018-09-10T01:24:59.202Z,71.93
2018-09-10T01:27:27.884Z,71.78
2018-09-10T01:29:56.519Z,70.97
2018-09-10T01:32:25.221Z,71.96
2018-09-10T01:34:58.882Z,72.06
2018-09-10T01:37:27.558Z,71.89
2018-09-10T01:39:56.530Z,72.13
2018-09-10T01:42:25.177Z,72.84
2018-09-10T01:44:53.905Z,73.33
2018-09-10T01:47:22.597Z,72.97
2018-09-10T01:49:51.239Z,73.10
2018-09-10T01:52:19.872Z,73.17
2018-09-10T01:54:48.511Z,73.81
2018-09-10T01:57:17.179Z,73.92
2018-09-10T01:59:45.848Z,73.38
2018-09-10T02:02:14.584Z,73.96
2018-09-10T02:04:43.253Z,73.50
2018-09-10T02:07:12.015Z,72.37
2018-09-10T02:09:40.674Z,72.68
2018-09-10T02:12:14.535Z,72.70
2018-09-10T02:14:43.211Z,72.53
2018-09-10T02:17:11.955Z,72.38
2018-09-10T02:19:40.602Z,73.15
2018-09-10T02:22:09.262Z,74.06
2018-09-10T02:24:37.923Z,73.17
2018-09-10T02:27:06.597Z,72.61
2018-09-10T02:29:35.276Z,73.80
2018-09-10T02:32:03.971Z,72.88
2018-09-10T02:34:32.608Z,72.93
2018-09-10T02:37:01.350Z,73.25
2018-09-10T02:39:30.024Z,74.23
2018-09-10T02:41:58.659Z,74.88
2018-09-10T02:44:27.595Z,75.20
2018-09-10T02:46:56.230Z,74.41
2018-09-10T02:49:24.878Z,75.79
2018-09-10T02:51:53.590Z,75.17
2018-09-10T02:54:22.274Z,74.58
2018-09-10T02:56:50.947Z,75.32
2018-09-10T02:59:19.643Z,74.89
2018-09-10T03:01:48.440Z,75.51
2018-09-10T03:04:17.066Z,75.75
2018-09-10T03:06:45.717Z,76.75
2018-09-10T03:09:14.356Z,75.93
2018-09-10T03:11:43.038Z,75.71
2018-09-10T03:14:11.688Z,75.54
2018-09-10T03:16:40.321Z,75.08
2018-09-10T03:19:09.018Z,75.49
2018-09-10T03:21:37.680Z,75.76
2018-09-10T03:24:06.560Z,76.44
2018-09-10T03:26:35.194Z,75.54
2018-09-10T03:29:03.906Z,74.83
2018-09-10T03:31:32.616Z,75.16
2018-09-10T03:34:01.272Z,75.85
2018-09-10T03:36:30.018Z,75.21
2018-09-10T03:38:58.706Z,76.55
2018-09-10T03:41:27.387Z,75.74
2018-09-10T03:43:56.016Z,75.23
2018-09-10T03:46:24.696Z,76.50
2018-09-10T03:48:53.382Z,76.39
2018-09-10T03:51:22.036Z,76.84
2018-09-10T03:53:50.690Z,76.50
2018-09-10T03:56:19.351Z,77.58
2018-09-10T03:58:48.020Z,77.39
2018-09-10T04:01:16.675Z,77.94
2018-09-10T04:03:45.320Z,77.59
2018-09-10T04:06:13.956Z,78.29
2018-09-10T04:08:42.621Z,78.13
2018-09-10T04:11:11.331Z,78.06
2018-09-10T04:13:40.003Z,77.87
2018-09-10T04:16:08.657Z,78.79
2018-09-10T04:18:37.368Z,77.62
2018-09-10T04:21:06.408Z,77.18
2018-09-10T04:23:35.068Z,75.43
2018-09-10T04:26:03.817Z,74.47
2018-09-10T04:28:32.782Z,73.59
2018-09-10T04:31:01.438Z,74.25
2018-09-10T04:33:30.091Z,74.58
2018-09-10T04:35:58.817Z,74.60
2018-09-10T04:38:27.577Z,73.66
2018-09-10T04:40:56.264Z,72.57
2018-09-10T04:43:25.200Z,72.40
2018-09-10T04:45:53.826Z,70.54
2018-09-10T04:48:22.475Z,69.34
2018-09-10T04:50:51.146Z,69.17
2018-09-10T04:53:19.827Z,69.37
2018-09-10T04:55:48.484Z,68.28
2018-09-10T04:58:17.285Z,66.89
2018-09-10T05:00:46.058Z,68.05
2018-09-10T05:03:14.709Z,70.15
2018-09-10T05:05:43.425Z,70.62
2018-09-10T05:08:12.100Z,72.00
2018-09-10T05:10:40.831Z,72.54
2018-09-10T05:13:09.503Z,70.67
2018-09-10T05:15:38.156Z,70.73
2018-09-10T05:18:06.811Z,70.24
2018-09-10T05:20:35.447Z,69.80
2018-09-10T05:23:04.220Z,68.90
2018-09-10T05:25:32.864Z,67.57
2018-09-10T05:28:01.527Z,67.03
2018-09-10T05:30:30.179Z,67.64
2018-09-10T05:32:58.828Z,67.63
2018-09-10T05:35:27.496Z,67.10
2018-09-10T05:37:56.212Z,67.36
2018-09-10T05:40:24.850Z,66.23
2018-09-10T05:42:53.524Z,64.29
2018-09-10T05:45:22.271Z,64.18
2018-09-10T05:47:51.294Z,63.29
2018-09-10T05:50:19.974Z,61.29
2018-09-10T05:52:48.620Z,59.82
2018-09-10T05:55:17.267Z,59.04
2018-09-10T05:57:45.980Z,57.43
2018-09-10T06:00:14.709Z,57.23
2018-09-10T06:02:43.366Z,57.30
2018-09-10T06:05:12.105Z,58.22
2018-09-10T06:07:40.795Z,58.02
2018-09-10T06:10:09.503Z,56.42
2018-09-10T06:12:38.216Z,56.16
2018-09-10T06:15:07.826Z,56.03
2018-09-10T06:17:36.499Z,56.86
2018-09-10T06:20:05.346Z,55.83
2018-09-10T06:22:34.008Z,55.37
2018-09-10T06:25:02.722Z,54.69
2018-09-10T06:27:31.379Z,54.14
2018-09-10T06:30:00.093Z,53.68
2018-09-10T06:32:28.777Z,54.47
2018-09-10T06:34:57.458Z,55.88
2018-09-10T06:37:26.118Z,54.92
2018-09-10T06:39:54.793Z,54.71
2018-09-10T06:42:23.427Z,52.95
2018-09-10T06:44:52.075Z,50.41
2018-09-10T06:47:20.709Z,48.43
2018-09-10T06:49:49.379Z,49.09
2018-09-10T06:52:18.090Z,47.76
2018-09-10T06:54:46.773Z,47.88
2018-09-10T06:57:15.452Z,47.65
2018-09-10T06:59:44.174Z,48.04
2018-09-10T07:02:12.937Z,48.22
2018-09-10T07:04:41.600Z,46.34
2018-09-10T07:07:10.272Z,46.24
2018-09-10T07:09:38.923Z,48.76
2018-09-10T07:12:07.584Z,49.25
2018-09-10T07:14:36.228Z,49.88
2018-09-10T07:17:04.995Z,51.39
2018-09-10T07:19:33.675Z,51.76
2018-09-10T07:22:02.500Z,52.04
2018-09-10T07:24:32.176Z,50.75
2018-09-10T07:27:00.814Z,49.08
2018-09-10T07:29:29.458Z,47.27
2018-09-10T07:31:58.096Z,47.60
2018-09-10T07:34:26.881Z,45.86
2018-09-10T07:36:55.550Z,45.12
2018-09-10T07:39:24.209Z,44.10
2018-09-10T07:41:52.870Z,44.55
2018-09-10T07:44:21.632Z,44.40
2018-09-10T07:46:50.430Z,44.76
2018-09-10T07:49:19.752Z,44.48
2018-09-10T07:51:48.426Z,44.69
2018-09-10T07:54:17.154Z,43.17
2018-09-10T07:56:45.903Z,42.91
2018-09-10T07:59:14.645Z,43.19
2018-09-10T08:01:43.372Z,42.77
2018-09-10T08:04:12.131Z,41.74
2018-09-10T08:06:40.868Z,42.99
2018-09-10T08:09:10.282Z,42.15
2018-09-10T08:11:38.922Z,41.22
2018-09-10T08:14:07.776Z,42.21
2018-09-10T08:16:36.652Z,41.08
2018-09-10T08:19:05.399Z,39.85
2018-09-10T08:21:34.444Z,37.59
2018-09-10T08:24:03.753Z,38.29
2018-09-10T08:26:32.542Z,37.90
2018-09-10T08:29:01.183Z,38.88
2018-09-10T08:31:29.839Z,38.54
2018-09-10T08:34:01.392Z,38.46
2018-09-10T08:36:30.073Z,39.77
2018-09-10T08:38:58.750Z,38.90
2018-09-10T08:41:27.568Z,38.98
2018-09-10T08:43:56.313Z,39.42
2018-09-10T08:46:24.972Z,38.05
2018-09-10T08:48:53.638Z,37.22
2018-09-10T08:51:22.361Z,36.81
2018-09-10T08:53:51.040Z,34.67
2018-09-10T08:56:19.873Z,35.87
2018-09-10T08:58:48.366Z,35.80
2018-09-10T09:01:17.081Z,36.62
2018-09-10T09:03:45.759Z,36.63
2018-09-10T09:06:14.509Z,37.03
2018-09-10T09:08:43.136Z,37.95
2018-09-10T09:11:11.821Z,37.86
2018-09-10T09:13:40.505Z,37.12
2018-09-10T09:16:09.203Z,37.43
2018-09-10T09:18:37.926Z,35.43
2018-09-10T09:21:06.720Z,35.08
2018-09-10T09:23:35.502Z,34.15
2018-09-10T09:26:04.164Z,32.56
2018-09-10T09:28:32.822Z,33.45
2018-09-10T09:31:01.466Z,33.63
2018-09-10T09:33:30.157Z,34.03
2018-09-10T09:36:04.057Z,34.44
2018-09-10T09:38:38.120Z,35.72
2018-09-10T09:41:12.109Z,37.26
2018-09-10T09:43:45.977Z,36.69
2018-09-10T09:46:16.846Z,38.48
2018-09-10T09:48:46.037Z,39.00
2018-09-10T09:51:14.735Z,36.96
2018-09-10T09:53:43.398Z,35.60
2018-09-10T09:56:12.036Z,34.89
2018-09-10T09:58:40.722Z,37.74
2018-09-10T10:01:14.535Z,38.95
2018-09-10T10:03:48.476Z,38.29
2018-09-10T10:06:17.267Z,36.03
2018-09-10T10:08:45.936Z,35.88
2018-09-10T10:11:14.627Z,38.38
2018-09-10T10:13:43.302Z,39.24
2018-09-10T10:16:11.979Z,40.15
2018-09-10T10:18:40.683Z,37.21
2018-09-10T10:21:09.422Z,35.09
2018-09-10T10:23:38.169Z,33.73
2018-09-10T10:26:06.852Z,33.12
2018-09-10T10:28:35.596Z,33.20
2018-09-10T10:31:04.398Z,31.67
2018-09-10T10:33:33.068Z,32.76
2018-09-10T10:36:01.802Z,32.57
2018-09-10T10:38:30.508Z,32.49
2018-09-10T10:40:59.217Z,31.46
2018-09-10T10:43:27.881Z,32.75
2018-09-10T10:45:56.574Z,33.14
2018-09-10T10:48:25.272Z,33.94
2018-09-10T10:50:53.924Z,33.49
2018-09-10T10:53:22.578Z,31.48
2018-09-10T10:55:51.251Z,30.92
2018-09-10T10:58:19.947Z,31.51
2018-09-10T11:00:48.665Z,31.82
2018-09-10T11:03:17.331Z,31.15
2018-09-10T11:05:46.033Z,32.28
2018-09-10T11:08:14.720Z,34.90
2018-09-10T11:10:43.445Z,33.58
2018-09-10T11:13:12.119Z,33.36
2018-09-10T11:15:40.816Z,32.29
2018-09-10T11:18:09.568Z,30.71
2018-09-10T11:20:38.225Z,30.98
2018-09-10T11:23:06.950Z,31.26
2018-09-10T11:25:35.632Z,31.24
2018-09-10T11:28:04.312Z,34.47
2018-09-10T11:30:33.063Z,32.12
2018-09-10T11:33:01.794Z,31.90
2018-09-10T11:35:30.487Z,32.14
2018-09-10T11:37:59.173Z,32.55
2018-09-10T11:40:28.003Z,33.82
2018-09-10T11:42:56.651Z,33.67
2018-09-10T11:45:25.356Z,32.48
2018-09-10T11:47:54.063Z,31.67
2018-09-10T11:50:22.735Z,29.76
2018-09-10T11:52:51.401Z,29.96
2018-09-10T11:55:20.060Z,30.30
2018-09-10T11:57:48.725Z,32.22
2018-09-10T12:00:17.604Z,31.17
2018-09-10T12:02:46.294Z,30.60
2018-09-10T12:05:15.001Z,29.29
2018-09-10T12:07:43.701Z,30.45
2018-09-10T12:10:12.492Z,32.34
2018-09-10T12:12:41.182Z,33.52
2018-09-10T12:15:09.962Z,32.72
2018-09-10T12:17:38.694Z,32.24
2018-09-10T12:20:07.457Z,31.81
2018-09-10T12:22:36.197Z,31.74
2018-09-10T12:25:05.289Z,32.03
2018-09-10T12:27:34.849Z,31.20
2018-09-10T12:30:05.188Z,32.05
2018-09-10T12:32:33.907Z,33.46
2018-09-10T12:35:02.578Z,34.52
2018-09-10T12:37:31.365Z,33.52
2018-09-10T12:40:00.038Z,32.44
2018-09-10T12:42:28.857Z,33.21
2018-09-10T12:44:57.540Z,34.08
2018-09-10T12:47:26.240Z,34.41
2018-09-10T12:49:54.884Z,34.76
2018-09-10T12:52:23.539Z,35.06
2018-09-10T12:54:52.250Z,35.13
2018-09-10T12:57:21.034Z,35.61
2018-09-10T12:59:49.715Z,35.89
2018-09-10T13:02:18.402Z,35.58
2018-09-10T13:04:47.080Z,35.42
2018-09-10T13:07:15.774Z,36.12
2018-09-10T13:09:44.439Z,36.69
2018-09-10T13:12:13.098Z,36.04
2018-09-10T13:14:41.774Z,36.44
2018-09-10T13:17:10.398Z,36.72
2018-09-10T13:19:39.079Z,36.92
2018-09-10T13:22:07.780Z,36.76
2018-09-10T13:24:36.482Z,36.16
2018-09-10T13:27:05.176Z,36.63
2018-09-10T13:29:33.861Z,35.43
2018-09-10T13:32:02.538Z,36.22
2018-09-10T13:34:31.217Z,35.81
2018-09-10T13:36:59.875Z,36.30
2018-09-10T13:39:28.564Z,36.04
2018-09-10T13:41:57.206Z,36.08
2018-09-10T13:44:25.881Z,36.54
2018-09-10T13:46:54.560Z,36.17
2018-09-10T13:49:23.345Z,36.05
2018-09-10T13:51:52.350Z,35.96
2018-09-10T13:54:21.108Z,35.84
2018-09-10T13:56:49.785Z,35.14
2018-09-10T13:59:18.469Z,36.15
2018-09-10T14:01:47.186Z,36.17
2018-09-10T14:04:15.841Z,36.32
2018-09-10T14:06:44.535Z,36.50
2018-09-10T14:09:13.188Z,36.92
2018-09-10T14:11:41.874Z,37.04
2018-09-10T14:14:10.575Z,36.50
2018-09-10T14:16:39.243Z,36.75
2018-09-10T14:19:07.956Z,37.09
2018-09-10T14:21:36.682Z,36.64
2018-09-10T14:24:05.418Z,37.12
2018-09-10T14:26:35.091Z,37.28
2018-09-10T14:29:03.814Z,37.03
2018-09-10T14:31:32.934Z,36.95
2018-09-10T14:34:01.623Z,36.88
2018-09-10T14:36:30.367Z,37.36
2018-09-10T14:38:59.065Z,36.93
2018-09-10T14:41:28.017Z,37.19
2018-09-10T14:43:56.667Z,36.77
2018-09-10T14:46:25.938Z,36.84
2018-09-10T14:48:54.675Z,37.09
2018-09-10T14:51:23.485Z,36.87
2018-09-10T14:53:52.859Z,36.82
2018-09-10T14:56:21.563Z,37.22
2018-09-10T14:58:50.553Z,37.49
2018-09-10T15:01:19.212Z,37.73
2018-09-10T15:03:48.006Z,37.70
2018-09-10T15:06:16.674Z,37.64
2018-09-10T15:08:45.315Z,37.70
2018-09-10T15:11:13.994Z,37.74
2018-09-10T15:13:42.623Z,38.25
2018-09-10T15:16:11.297Z,38.33
2018-09-10T15:18:40.122Z,38.53
2018-09-10T15:21:08.679Z,38.43
2018-09-10T15:23:37.401Z,38.98
2018-09-10T15:26:06.198Z,39.05
2018-09-10T15:28:35.161Z,39.54
2018-09-10T15:31:03.925Z,39.59
2018-09-10T15:33:32.635Z,39.54
2018-09-10T15:36:01.328Z,39.49
2018-09-10T15:38:29.998Z,39.59
2018-09-10T15:40:58.651Z,39.47
2018-09-10T15:43:27.326Z,40.24
2018-09-10T15:45:55.991Z,39.29
2018-09-10T15:48:24.732Z,40.50
2018-09-10T15:50:53.401Z,40.68
2018-09-10T15:53:22.106Z,40.37
2018-09-10T15:55:50.811Z,40.33
2018-09-10T15:58:19.482Z,40.74
2018-09-10T16:00:48.113Z,40.75
2018-09-10T16:03:16.878Z,40.05
2018-09-10T16:05:45.554Z,40.03
2018-09-10T16:08:14.253Z,41.16
2018-09-10T16:10:42.931Z,41.00
2018-09-10T16:13:11.622Z,40.88
2018-09-10T16:15:40.317Z,41.78
2018-09-10T16:18:09.101Z,41.49
2018-09-10T16:20:37.865Z,41.10
2018-09-10T16:23:06.870Z,42.01
2018-09-10T16:25:35.592Z,42.16
2018-09-10T16:28:04.255Z,41.90
2018-09-10T16:30:32.920Z,41.65
2018-09-10T16:33:01.671Z,42.25
2018-09-10T16:35:30.348Z,42.48
2018-09-10T16:37:59.040Z,42.14
2018-09-10T16:40:27.750Z,42.62
2018-09-10T16:42:56.438Z,42.50
2018-09-10T16:45:25.162Z,42.80
2018-09-10T16:47:53.863Z,42.81
2018-09-10T16:50:22.582Z,43.13
2018-09-10T16:52:51.258Z,42.76
2018-09-10T16:55:19.947Z,43.06
2018-09-10T16:57:48.618Z,42.98
2018-09-10T17:00:17.258Z,43.03
2018-09-10T17:02:45.932Z,44.03
2018-09-10T17:05:14.574Z,43.74
2018-09-10T17:07:43.310Z,43.81
2018-09-10T17:10:12.020Z,44.60
2018-09-10T17:12:40.742Z,45.08
2018-09-10T17:15:10.405Z,44.40
2018-09-10T17:17:39.133Z,44.88
2018-09-10T17:20:07.871Z,44.46
2018-09-10T17:22:36.767Z,44.83
2018-09-10T17:25:05.461Z,46.21
2018-09-10T17:27:34.158Z,46.19
2018-09-10T17:30:02.856Z,45.86
2018-09-10T17:32:31.599Z,46.16
2018-09-10T17:35:00.267Z,46.17
2018-09-10T17:37:28.938Z,45.92
2018-09-10T17:39:57.619Z,45.63
2018-09-10T17:42:26.310Z,46.51
2018-09-10T17:44:55.038Z,46.37
2018-09-10T17:47:23.731Z,46.99
2018-09-10T17:49:52.393Z,47.06
2018-09-10T17:52:21.084Z,46.73
2018-09-10T17:54:49.791Z,46.96
2018-09-10T17:57:18.425Z,46.57
2018-09-10T17:59:47.115Z,45.68
2018-09-10T18:02:15.982Z,45.92
2018-09-10T18:04:44.712Z,46.10
2018-09-10T18:07:13.394Z,46.38
2018-09-10T18:09:42.066Z,47.05
2018-09-10T18:12:10.719Z,47.42
2018-09-10T18:14:39.427Z,48.15
2018-09-10T18:17:08.074Z,48.20
2018-09-10T18:19:36.773Z,48.32
2018-09-10T18:22:05.458Z,48.56
2018-09-10T18:24:34.123Z,48.51
2018-09-10T18:27:02.833Z,49.28
2018-09-10T18:29:31.478Z,49.01
2018-09-10T18:32:00.115Z,49.16
2018-09-10T18:34:28.781Z,48.60
2018-09-10T18:36:57.514Z,48.92
2018-09-10T18:39:26.163Z,49.61
2018-09-10T18:41:54.833Z,49.75
2018-09-10T18:44:23.616Z,49.43
2018-09-10T18:46:52.240Z,50.19
2018-09-10T18:49:20.899Z,49.86
2018-09-10T18:51:49.592Z,50.03
2018-09-10T18:54:18.269Z,50.98
2018-09-10T18:56:46.974Z,50.78
2018-09-10T18:59:15.785Z,51.45
2018-09-10T19:01:45.104Z,50.96
2018-09-10T19:04:13.776Z,51.83
2018-09-10T19:06:42.401Z,51.22
2018-09-10T19:09:11.925Z,52.26
2018-09-10T19:11:40.663Z,52.08
2018-09-10T19:14:09.328Z,52.34
2018-09-10T19:16:37.985Z,53.03
2018-09-10T19:19:06.996Z,53.78
2018-09-10T19:21:35.758Z,53.44
2018-09-10T19:24:04.439Z,54.08
2018-09-10T19:26:33.094Z,54.22
2018-09-10T19:29:01.758Z,54.84
2018-09-10T19:31:30.465Z,54.65
2018-09-10T19:33:59.114Z,54.95
2018-09-10T19:36:27.795Z,55.02
2018-09-10T19:38:56.502Z,54.65
2018-09-10T19:41:25.220Z,54.98
2018-09-10T19:43:53.987Z,54.56
2018-09-10T19:46:22.650Z,54.76
2018-09-10T19:48:51.318Z,55.31
2018-09-10T19:51:20.094Z,54.89
2018-09-10T19:53:48.730Z,55.40
2018-09-10T19:56:17.367Z,55.44
2018-09-10T19:58:46.047Z,55.72
2018-09-10T20:01:14.737Z,55.42
2018-09-10T20:03:43.442Z,55.83
2018-09-10T20:06:12.133Z,55.06
2018-09-10T20:08:41.151Z,55.62
2018-09-10T20:11:09.827Z,55.72
2018-09-10T20:13:38.519Z,55.88
2018-09-10T20:16:07.286Z,56.07
2018-09-10T20:18:36.015Z,55.23
2018-09-10T20:21:05.002Z,55.53
2018-09-10T20:23:33.684Z,55.96
2018-09-10T20:26:02.387Z,55.87
2018-09-10T20:28:31.019Z,55.59
2018-09-10T20:31:00.095Z,56.21
2018-09-10T20:33:28.860Z,56.29
2018-09-10T20:35:58.238Z,56.22
2018-09-10T20:38:26.895Z,56.24
2018-09-10T20:40:55.527Z,56.36
2018-09-10T20:43:24.170Z,55.91
2018-09-10T20:45:52.825Z,56.51
2018-09-10T20:48:21.472Z,55.70
2018-09-10T20:50:50.129Z,56.32
2018-09-10T20:53:18.862Z,55.85
2018-09-10T20:55:47.470Z,56.62
2018-09-10T20:58:16.105Z,56.98
2018-09-10T21:00:44.784Z,56.48
2018-09-10T21:03:13.433Z,56.81
2018-09-10T21:05:42.071Z,57.26
2018-09-10T21:08:10.754Z,57.54
2018-09-10T21:10:39.398Z,58.29
2018-09-10T21:13:08.159Z,57.45
2018-09-10T21:15:36.815Z,57.74
2018-09-10T21:18:05.535Z,57.80
2018-09-10T21:20:34.231Z,58.18
2018-09-10T21:23:03.437Z,58.91
2018-09-10T21:25:32.217Z,59.77
2018-09-10T21:28:00.921Z,58.94
2018-09-10T21:30:29.538Z,59.32
2018-09-10T21:32:58.240Z,59.41
2018-09-10T21:35:26.890Z,59.39
2018-09-10T21:37:55.507Z,59.01
2018-09-10T21:40:24.136Z,58.45
2018-09-10T21:42:52.814Z,59.17
2018-09-10T21:45:21.437Z,58.78
2018-09-10T21:47:50.081Z,58.90
2018-09-10T21:50:18.747Z,58.76
2018-09-10T21:52:47.387Z,58.64
2018-09-10T21:55:17.042Z,58.62
2018-09-10T21:57:45.692Z,58.91
2018-09-10T22:00:14.455Z,58.73
2018-09-10T22:02:43.170Z,59.30
2018-09-10T22:05:11.885Z,58.31
2018-09-10T22:07:40.591Z,58.33
2018-09-10T22:10:09.281Z,58.02
2018-09-10T22:12:37.971Z,58.24
2018-09-10T22:15:06.658Z,58.07
2018-09-10T22:17:35.359Z,58.58
2018-09-10T22:20:04.197Z,58.53
2018-09-10T22:22:32.925Z,57.90
2018-09-10T22:25:01.661Z,58.05
2018-09-10T22:27:30.362Z,57.86
2018-09-10T22:29:58.989Z,58.64
2018-09-10T22:32:27.720Z,59.58
2018-09-10T22:34:56.463Z,60.29
2018-09-10T22:37:25.138Z,60.94
2018-09-10T22:39:53.942Z,61.68
2018-09-10T22:42:23.013Z,62.10
2018-09-10T22:44:51.800Z,62.18
2018-09-10T22:47:20.515Z,62.64
2018-09-10T22:49:49.279Z,62.18
2018-09-10T22:52:18.000Z,62.74
2018-09-10T22:54:46.702Z,62.80
2018-09-10T22:57:15.398Z,63.81
2018-09-10T22:59:44.060Z,63.48
2018-09-10T23:02:12.782Z,63.82
2018-09-10T23:04:41.519Z,65.09
2018-09-10T23:07:10.165Z,66.91
2018-09-10T23:09:38.876Z,67.84
2018-09-10T23:12:07.606Z,67.83
2018-09-10T23:14:36.289Z,68.13
2018-09-10T23:17:05.091Z,68.25
2018-09-10T23:19:33.889Z,69.33
2018-09-10T23:22:02.591Z,69.41
2018-09-10T23:24:31.241Z,69.78
2018-09-10T23:26:59.891Z,69.93
2018-09-10T23:29:28.611Z,69.74
2018-09-10T23:31:57.307Z,70.29
2018-09-10T23:34:25.951Z,70.59
2018-09-10T23:36:54.631Z,70.56
2018-09-10T23:39:23.295Z,70.29
2018-09-10T23:41:51.980Z,70.89
2018-09-10T23:44:20.721Z,71.50
2018-09-10T23:46:49.372Z,71.76
2018-09-10T23:49:18.040Z,72.26
2018-09-10T23:51:46.786Z,72.53
2018-09-10T23:54:15.492Z,72.62
2018-09-10T23:56:44.162Z,72.76
2018-09-10T23:59:12.812Z,73.78
